Jacksonville, Maryland
Current Conditions -  °F | °C
As of 11:50 AM on Thursday 27 Nov 2014 (Local Time) from KMTN Reporting Station
Broken Clouds Broken Clouds  
Wind Chill: 41°   Ceiling: 5000
Heat Index: 46°   Visibility: 10mi
Dew Point: 34°   Wind: 12mph
Humidity: 62%   Direction: 290°WNW
Pressure: 30.05"   Gusts: NA
Location:  39.5027°N, 76.5721°W
Report Text: KMTN 271650Z 29010KT 10SM SCT035 BKN050 BKN150 08/01 A3005
Loading
Personal Weather Stations






























Interactive Weather Map New forecast layout! Learn more

10-Day Weather Forecast

Advertisements
Track Severe Weather on mobile